createdAt,value
2022-11-24T00:00:49.330Z,98424.42
2022-11-24T00:02:54.186Z,98425.81
2022-11-24T00:04:58.901Z,98428.23
2022-11-24T00:07:03.631Z,98428.83
2022-11-24T00:09:08.681Z,98429.13
2022-11-24T00:11:15.471Z,98429.66
2022-11-24T00:13:20.181Z,98436.84
2022-11-24T00:15:24.897Z,98439.52
2022-11-24T00:17:29.603Z,98442.51
2022-11-24T00:19:34.379Z,98443.61
2022-11-24T00:21:39.588Z,98444.34
2022-11-24T00:23:44.835Z,98447.67
2022-11-24T00:25:49.554Z,98448.82
2022-11-24T00:27:55.250Z,98447.27
2022-11-24T00:29:59.882Z,98450.09
2022-11-24T00:32:04.707Z,98449.56
2022-11-24T00:34:13.481Z,98452.38
2022-11-24T00:36:19.751Z,98451.52
2022-11-24T00:38:24.797Z,98451.81
2022-11-24T00:40:34.709Z,98448.60
2022-11-24T00:42:39.845Z,98453.52
2022-11-24T00:44:44.537Z,98457.80
2022-11-24T00:46:49.331Z,98459.52
2022-11-24T00:48:54.297Z,98457.52
2022-11-24T00:51:00.965Z,98460.15
2022-11-24T00:53:05.720Z,98465.40
2022-11-24T00:55:10.811Z,98465.77
2022-11-24T00:57:15.553Z,98465.54
2022-11-24T00:59:20.304Z,98470.14
2022-11-24T01:01:27.711Z,98472.70
2022-11-24T01:03:33.190Z,98478.96
2022-11-24T01:05:39.222Z,98476.31
2022-11-24T01:07:44.035Z,98477.50
2022-11-24T01:09:48.837Z,98474.31
2022-11-24T01:11:53.503Z,98475.24
2022-11-24T01:13:59.265Z,98475.16
2022-11-24T01:16:04.044Z,98474.25
2022-11-24T01:18:09.770Z,98477.20
2022-11-24T01:20:15.017Z,98472.42
2022-11-24T01:22:19.764Z,98482.71
2022-11-24T01:24:24.558Z,98485.23
2022-11-24T01:26:29.368Z,98481.70
2022-11-24T01:28:34.769Z,98490.57
2022-11-24T01:30:39.536Z,98492.42
2022-11-24T01:32:44.301Z,98498.23
2022-11-24T01:34:49.068Z,98500.30
2022-11-24T01:36:53.949Z,98501.52
2022-11-24T01:38:58.597Z,98504.79
2022-11-24T01:41:05.542Z,98508.09
2022-11-24T01:43:18.929Z,98500.50
2022-11-24T01:45:34.066Z,98506.52
2022-11-24T01:47:41.162Z,98506.98
2022-11-24T01:49:49.084Z,98509.91
2022-11-24T01:51:58.396Z,98515.96
2022-11-24T01:54:05.953Z,98513.11
2022-11-24T01:56:13.855Z,98509.95
2022-11-24T01:58:22.164Z,98514.69
2022-11-24T02:00:27.239Z,98518.95
2022-11-24T02:02:32.062Z,98524.91
2022-11-24T02:04:38.021Z,98522.10
2022-11-24T02:06:44.341Z,98522.36
2022-11-24T02:08:57.366Z,98515.98
2022-11-24T02:11:04.307Z,98511.14
2022-11-24T02:13:09.259Z,98516.41
2022-11-24T02:15:15.485Z,98518.05
2022-11-24T02:17:20.273Z,98515.55
2022-11-24T02:19:34.312Z,98516.52
2022-11-24T02:21:39.085Z,98516.88
2022-11-24T02:23:49.874Z,98514.50
2022-11-24T02:26:04.593Z,98514.63
2022-11-24T02:28:13.106Z,98514.13
2022-11-24T02:30:18.216Z,98513.48
2022-11-24T02:32:23.288Z,98507.91
2022-11-24T02:34:28.191Z,98511.95
2022-11-24T02:36:32.808Z,98513.94
2022-11-24T02:38:37.447Z,98516.37
2022-11-24T02:40:44.757Z,98517.23
2022-11-24T02:42:49.513Z,98518.71
2022-11-24T02:44:58.588Z,98517.68
2022-11-24T02:47:08.870Z,98518.42
2022-11-24T02:49:13.648Z,98521.96
2022-11-24T02:51:18.426Z,98523.79
2022-11-24T02:53:23.081Z,98523.56
2022-11-24T02:55:27.823Z,98524.01
2022-11-24T02:57:32.866Z,98523.34
2022-11-24T02:59:37.604Z,98523.74
2022-11-24T03:01:42.353Z,98527.30
2022-11-24T03:03:47.260Z,98529.89
2022-11-24T03:05:52.011Z,98526.03
2022-11-24T03:07:56.704Z,98525.34
2022-11-24T03:10:01.492Z,98526.92
2022-11-24T03:12:06.590Z,98528.30
2022-11-24T03:14:11.350Z,98524.23
2022-11-24T03:16:16.165Z,98525.13
2022-11-24T03:18:20.914Z,98523.48
2022-11-24T03:20:26.374Z,98526.20
2022-11-24T03:22:31.000Z,98526.31
2022-11-24T03:24:35.897Z,98528.13
2022-11-24T03:26:41.015Z,98524.38
2022-11-24T03:28:45.958Z,98523.66
2022-11-24T03:30:51.390Z,98525.73
2022-11-24T03:32:56.235Z,98523.41
2022-11-24T03:35:00.931Z,98530.79
2022-11-24T03:37:05.558Z,98531.64
2022-11-24T03:39:10.187Z,98531.79
2022-11-24T03:41:14.864Z,98534.64
2022-11-24T03:43:19.519Z,98538.38
2022-11-24T03:45:46.103Z,98544.11
2022-11-24T03:47:51.814Z,98546.08
2022-11-24T03:49:56.443Z,98546.36
2022-11-24T03:52:06.549Z,98547.11
2022-11-24T03:54:12.577Z,98554.13
2022-11-24T03:56:17.236Z,98555.35
2022-11-24T03:58:22.364Z,98555.12
2022-11-24T04:00:27.199Z,98560.30
2022-11-24T04:02:32.019Z,98561.87
2022-11-24T04:04:37.189Z,98562.25
2022-11-24T04:06:41.935Z,98569.20
2022-11-24T04:08:46.817Z,98568.95
2022-11-24T04:10:54.175Z,98574.05
2022-11-24T04:12:58.895Z,98576.04
2022-11-24T04:15:03.736Z,98582.45
2022-11-24T04:17:08.394Z,98583.89
2022-11-24T04:19:13.170Z,98590.48
2022-11-24T04:21:17.832Z,98586.27
2022-11-24T04:23:22.777Z,98586.89
2022-11-24T04:25:30.145Z,98592.05
2022-11-24T04:27:35.914Z,98595.61
2022-11-24T04:29:40.567Z,98599.02
2022-11-24T04:31:45.229Z,98602.55
2022-11-24T04:33:49.934Z,98603.10
2022-11-24T04:35:56.123Z,98609.14
2022-11-24T04:38:03.468Z,98610.17
2022-11-24T04:40:11.144Z,98618.38
2022-11-24T04:42:15.920Z,98625.06
2022-11-24T04:44:20.633Z,98623.98
2022-11-24T04:46:25.341Z,98631.98
2022-11-24T04:48:30.418Z,98628.34
2022-11-24T04:50:35.726Z,98632.86
2022-11-24T04:52:40.343Z,98634.48
2022-11-24T04:54:45.160Z,98636.14
2022-11-24T04:56:52.194Z,98644.86
2022-11-24T04:58:56.820Z,98645.92
2022-11-24T05:01:01.750Z,98645.02
2022-11-24T05:03:06.490Z,98649.06
2022-11-24T05:05:11.671Z,98646.66
2022-11-24T05:07:19.186Z,98645.94
2022-11-24T05:09:32.618Z,98644.45
2022-11-24T05:11:48.913Z,98643.94
2022-11-24T05:13:54.339Z,98641.13
2022-11-24T05:15:59.165Z,98646.56
2022-11-24T05:18:05.715Z,98642.95
2022-11-24T05:20:11.199Z,98644.73
2022-11-24T05:22:16.112Z,98650.82
2022-11-24T05:24:20.768Z,98647.52
2022-11-24T05:26:26.314Z,98645.04
2022-11-24T05:28:31.376Z,98652.92
2022-11-24T05:30:36.495Z,98653.40
2022-11-24T05:32:41.068Z,98649.90
2022-11-24T05:34:45.909Z,98654.32
2022-11-24T05:36:50.513Z,98658.21
2022-11-24T05:38:55.287Z,98655.17
2022-11-24T05:41:05.009Z,98659.84
2022-11-24T05:43:13.582Z,98664.95
2022-11-24T05:45:20.789Z,98667.23
2022-11-24T05:47:28.251Z,98666.40
2022-11-24T05:49:32.820Z,98673.33
2022-11-24T05:51:37.455Z,98673.17
2022-11-24T05:53:42.308Z,98677.92
2022-11-24T05:55:47.011Z,98675.15
2022-11-24T05:57:59.414Z,98677.92
2022-11-24T06:00:05.784Z,98687.77
2022-11-24T06:02:17.154Z,98690.06
2022-11-24T06:04:21.844Z,98690.26
2022-11-24T06:06:26.472Z,98688.85
2022-11-24T06:08:31.646Z,98698.77
2022-11-24T06:10:37.609Z,98703.27
2022-11-24T06:12:42.249Z,98704.38
2022-11-24T06:14:46.863Z,98709.45
2022-11-24T06:16:51.567Z,98712.54
2022-11-24T06:18:56.479Z,98708.45
2022-11-24T06:21:10.807Z,98712.53
2022-11-24T06:23:16.037Z,98719.98
2022-11-24T06:25:20.706Z,98719.08
2022-11-24T06:27:25.769Z,98728.58
2022-11-24T06:29:30.373Z,98722.10
2022-11-24T06:31:35.212Z,98726.89
2022-11-24T06:33:40.299Z,98728.60
2022-11-24T06:35:44.881Z,98735.28
2022-11-24T06:37:49.631Z,98735.25
2022-11-24T06:39:54.282Z,98730.36
2022-11-24T06:41:58.896Z,98729.80
2022-11-24T06:44:05.617Z,98731.98
2022-11-24T06:46:10.668Z,98732.65
2022-11-24T06:48:15.375Z,98735.02
2022-11-24T06:50:20.230Z,98740.51
2022-11-24T06:52:25.043Z,98735.35
2022-11-24T06:54:29.662Z,98739.23
2022-11-24T06:56:34.409Z,98747.56
2022-11-24T06:58:44.161Z,98751.75
2022-11-24T07:00:48.904Z,98749.98
2022-11-24T07:02:53.609Z,98749.48
2022-11-24T07:04:58.309Z,98752.02
2022-11-24T07:07:03.821Z,98755.92
2022-11-24T07:09:08.933Z,98762.17
2022-11-24T07:11:16.251Z,98763.17
2022-11-24T07:13:21.291Z,98771.30
2022-11-24T07:15:25.906Z,98773.97
2022-11-24T07:17:30.581Z,98776.89
2022-11-24T07:19:35.280Z,98777.95
2022-11-24T07:21:39.904Z,98775.89
2022-11-24T07:23:44.549Z,98782.99
2022-11-24T07:25:49.155Z,98783.64
2022-11-24T07:27:58.763Z,98790.66
2022-11-24T07:30:03.542Z,98788.38
2022-11-24T07:32:08.227Z,98791.43
2022-11-24T07:34:13.164Z,98796.08
2022-11-24T07:36:17.967Z,98792.86
2022-11-24T07:38:22.860Z,98789.55
2022-11-24T07:40:28.034Z,98794.48
2022-11-24T07:42:32.694Z,98794.90
2022-11-24T07:44:37.422Z,98796.50
2022-11-24T07:46:42.048Z,98796.11
2022-11-24T07:48:46.686Z,98798.19
2022-11-24T07:50:55.720Z,98801.16
2022-11-24T07:53:03.940Z,98806.38
2022-11-24T07:55:10.334Z,98805.95
2022-11-24T07:57:14.927Z,98806.14
2022-11-24T07:59:19.640Z,98807.94
2022-11-24T08:01:24.428Z,98811.58
2022-11-24T08:03:29.376Z,98812.06
2022-11-24T08:05:34.079Z,98816.79
2022-11-24T08:07:38.777Z,98816.58
2022-11-24T08:09:43.454Z,98822.06
2022-11-24T08:11:48.097Z,98820.98
2022-11-24T08:13:52.825Z,98824.13
2022-11-24T08:15:57.433Z,98827.37
2022-11-24T08:18:03.980Z,98830.81
2022-11-24T08:20:11.903Z,98832.98
2022-11-24T08:22:16.506Z,98841.63
2022-11-24T08:24:21.118Z,98840.31
2022-11-24T08:26:26.250Z,98849.20
2022-11-24T08:28:30.939Z,98845.46
2022-11-24T08:30:35.552Z,98851.17
2022-11-24T08:32:40.136Z,98856.42
2022-11-24T08:34:44.703Z,98855.55
2022-11-24T08:36:49.337Z,98859.77
2022-11-24T08:38:58.110Z,98863.73
2022-11-24T08:41:04.531Z,98862.70
2022-11-24T08:43:09.155Z,98857.07
2022-11-24T08:45:21.106Z,98864.90
2022-11-24T08:47:26.647Z,98868.30
2022-11-24T08:49:31.247Z,98869.25
2022-11-24T08:51:35.928Z,98874.59
2022-11-24T08:53:41.247Z,98873.81
2022-11-24T08:55:45.883Z,98873.25
2022-11-24T08:57:50.478Z,98873.08
2022-11-24T08:59:55.072Z,98877.47
2022-11-24T09:01:59.779Z,98881.80
2022-11-24T09:04:05.661Z,98882.43
2022-11-24T09:06:11.019Z,98877.42
2022-11-24T09:08:15.763Z,98875.73
2022-11-24T09:10:20.734Z,98874.67
2022-11-24T09:12:25.385Z,98877.34
2022-11-24T09:14:30.406Z,98875.91
2022-11-24T09:16:35.114Z,98878.41
2022-11-24T09:18:40.402Z,98873.10
2022-11-24T09:23:07.427Z,98875.91
2022-11-24T09:25:12.400Z,98875.61
2022-11-24T09:27:16.960Z,98875.65
2022-11-24T09:29:21.799Z,98877.22
2022-11-24T09:31:28.514Z,98875.41
2022-11-24T09:33:33.834Z,98873.02
2022-11-24T09:35:39.699Z,98877.90
2022-11-24T09:37:44.262Z,98879.71
2022-11-24T09:39:49.166Z,98873.13
2022-11-24T09:42:12.978Z,98878.98
2022-11-24T09:44:34.214Z,98878.36
2022-11-24T09:46:49.551Z,98873.98
2022-11-24T09:48:57.112Z,98876.53
2022-11-24T09:51:04.499Z,98875.63
2022-11-24T09:53:16.540Z,98878.55
2022-11-24T09:55:37.622Z,98883.94
2022-11-24T09:57:43.932Z,98876.36
2022-11-24T09:59:48.699Z,98881.52
2022-11-24T10:01:53.734Z,98878.27
2022-11-24T10:04:05.570Z,98878.36
2022-11-24T10:06:23.025Z,98882.50
2022-11-24T10:08:47.460Z,98875.77
2022-11-24T10:10:57.724Z,98873.75
2022-11-24T10:13:13.460Z,98871.55
2022-11-24T10:15:31.468Z,98867.52
2022-11-24T10:17:49.657Z,98868.08
2022-11-24T10:20:03.697Z,98866.98
2022-11-24T10:22:37.245Z,98867.90
2022-11-24T10:25:04.200Z,98867.69
2022-11-24T10:27:18.458Z,98868.34
2022-11-24T10:29:30.811Z,98870.40
2022-11-24T10:31:38.352Z,98870.48
2022-11-24T10:33:43.935Z,98870.66
2022-11-24T10:35:52.494Z,98870.38
2022-11-24T10:38:05.791Z,98875.92
2022-11-24T10:40:40.484Z,98876.89
2022-11-24T10:42:42.176Z,98877.98
2022-11-24T10:44:58.342Z,98881.25
2022-11-24T10:47:03.172Z,98880.21
2022-11-24T10:49:14.583Z,98883.84
2022-11-24T10:51:38.710Z,98883.43
2022-11-24T10:53:44.902Z,98889.36
2022-11-24T10:56:06.512Z,98876.23
2022-11-24T10:58:19.607Z,98878.38
2022-11-24T11:00:34.236Z,98873.77
2022-11-24T11:02:40.206Z,98872.50
2022-11-24T11:04:45.077Z,98872.90
2022-11-24T11:06:49.785Z,98869.79
2022-11-24T11:09:16.741Z,98873.95
2022-11-24T11:11:27.307Z,98879.17
2022-11-24T11:13:32.646Z,98879.30
2022-11-24T11:15:37.734Z,98879.41
2022-11-24T11:17:44.175Z,98877.14
2022-11-24T11:19:51.304Z,98880.14
2022-11-24T11:22:04.065Z,98878.23
2022-11-24T11:24:17.021Z,98885.23
2022-11-24T11:26:33.724Z,98882.23
2022-11-24T11:28:38.376Z,98881.87
2022-11-24T11:35:51.152Z,98877.48
2022-11-24T11:37:58.758Z,98875.66
2022-11-24T11:40:08.409Z,98875.63
2022-11-24T11:42:53.917Z,98874.38
2022-11-24T11:44:54.062Z,98879.19
2022-11-24T11:47:03.031Z,98876.05
2022-11-24T11:49:11.430Z,98878.84
2022-11-24T11:54:04.027Z,98879.27
2022-11-24T11:56:21.877Z,98878.63
2022-11-24T11:58:50.967Z,98877.38
2022-11-24T12:01:04.675Z,98879.44
2022-11-24T12:03:34.877Z,98882.27
2022-11-24T12:05:51.023Z,98886.13
2022-11-24T12:08:11.682Z,98885.56
2022-11-24T12:10:31.396Z,98885.03
2022-11-24T12:12:49.570Z,98885.40
2022-11-24T12:15:09.033Z,98880.83
2022-11-24T12:17:26.447Z,98880.55
2022-11-24T12:19:46.352Z,98883.52
2022-11-24T12:22:02.911Z,98883.73
2022-11-24T12:24:17.696Z,98881.13
2022-11-24T12:26:32.706Z,98877.36
2022-11-24T12:28:52.539Z,98877.23
2022-11-24T12:31:06.467Z,98885.46
2022-11-24T12:33:34.216Z,98880.08
2022-11-24T12:35:42.871Z,98889.38
2022-11-24T12:37:58.508Z,98888.84
2022-11-24T12:40:13.130Z,98886.80
2022-11-24T12:42:27.469Z,98900.73
2022-11-24T12:44:55.014Z,98899.66
2022-11-24T12:47:10.200Z,98899.36
2022-11-24T12:49:25.105Z,98893.46
2022-11-24T12:51:33.219Z,98894.31
2022-11-24T12:53:39.732Z,98890.30
2022-11-24T12:55:44.740Z,98887.61
2022-11-24T12:57:55.738Z,98884.16
2022-11-24T13:00:05.606Z,98885.99
2022-11-24T13:02:25.718Z,98885.64
2022-11-24T13:04:40.721Z,98891.04
2022-11-24T13:06:52.317Z,98895.07
2022-11-24T13:08:56.924Z,98902.63
2022-11-24T13:11:34.966Z,98900.84
2022-11-24T13:13:59.689Z,98898.85
2022-11-24T13:18:53.085Z,98902.09
2022-11-24T13:20:57.856Z,98910.90
2022-11-24T13:23:04.901Z,98908.74
2022-11-24T13:25:20.028Z,98898.95
2022-11-24T13:27:42.238Z,98905.72
2022-11-24T13:29:47.781Z,98906.73
2022-11-24T13:31:52.501Z,98913.22
2022-11-24T13:33:57.178Z,98907.27
2022-11-24T13:36:34.238Z,98905.26
2022-11-24T13:38:52.202Z,98918.77
2022-11-24T13:41:20.955Z,98916.30
2022-11-24T13:43:24.861Z,98923.31
2022-11-24T13:45:51.433Z,98922.14
2022-11-24T13:47:56.063Z,98919.83
2022-11-24T13:50:01.859Z,98919.79
2022-11-24T13:52:37.296Z,98909.20
2022-11-24T13:54:43.683Z,98920.36
2022-11-24T13:56:48.304Z,98926.23
2022-11-24T13:58:55.555Z,98931.63
2022-11-24T14:01:10.382Z,98927.17
2022-11-24T14:03:22.805Z,98927.40
2022-11-24T14:05:35.589Z,98933.45
2022-11-24T14:07:43.502Z,98935.89
2022-11-24T14:09:50.333Z,98933.11
2022-11-24T14:12:06.806Z,98935.00
2022-11-24T14:14:21.032Z,98942.48
2022-11-24T14:16:25.770Z,98942.36
2022-11-24T14:18:30.778Z,98941.39
2022-11-24T14:20:35.471Z,98943.83
2022-11-24T14:22:41.845Z,98948.59
2022-11-24T14:24:51.499Z,98953.22
2022-11-24T14:26:56.120Z,98948.35
2022-11-24T14:29:07.548Z,98950.71
2022-11-24T14:31:21.626Z,98953.80
2022-11-24T14:33:26.327Z,98961.50
2022-11-24T14:35:32.515Z,98960.10
2022-11-24T14:37:37.618Z,98956.58
2022-11-24T14:39:43.204Z,98952.94
2022-11-24T14:42:00.291Z,98951.41
2022-11-24T14:44:15.526Z,98956.63
2022-11-24T14:46:21.136Z,98941.50
2022-11-24T14:48:28.749Z,98950.13
2022-11-24T14:50:33.673Z,98959.82
2022-11-24T14:52:45.310Z,98962.35
2022-11-24T14:54:51.472Z,98967.39
2022-11-24T14:57:02.045Z,98967.34
2022-11-24T14:59:22.542Z,98965.26
2022-11-24T15:01:34.245Z,98971.11
2022-11-24T15:03:38.881Z,98967.83
2022-11-24T15:05:55.009Z,98966.17
2022-11-24T15:08:03.616Z,98965.73
2022-11-24T15:10:20.856Z,98968.15
2022-11-24T15:12:29.775Z,98976.73
2022-11-24T15:14:39.740Z,98988.13
2022-11-24T15:16:45.676Z,98986.71
2022-11-24T15:18:59.113Z,98992.98
2022-11-24T15:21:04.277Z,98993.95
2022-11-24T15:23:25.047Z,98987.95
2022-11-24T15:25:32.835Z,98990.33
2022-11-24T15:27:37.435Z,98993.71
2022-11-24T15:29:42.046Z,98995.94
2022-11-24T15:31:52.396Z,98998.27
2022-11-24T15:33:57.575Z,99003.20
2022-11-24T15:36:02.507Z,99007.61
2022-11-24T15:38:07.180Z,99005.94
2022-11-24T15:40:15.748Z,99006.63
2022-11-24T15:42:20.746Z,99001.81
2022-11-24T15:44:25.375Z,98997.64
2022-11-24T15:46:31.509Z,99000.35
2022-11-24T15:48:36.461Z,98994.33
2022-11-24T15:50:41.118Z,98991.23
2022-11-24T15:52:47.425Z,98995.29
2022-11-24T15:54:55.888Z,98999.69
2022-11-24T15:57:00.867Z,99007.70
2022-11-24T15:59:05.751Z,99012.66
2022-11-24T16:01:10.662Z,99018.31
2022-11-24T16:03:45.769Z,99017.69
2022-11-24T16:05:40.645Z,99028.80
2022-11-24T16:07:45.851Z,99034.50
2022-11-24T16:09:50.511Z,99040.14
2022-11-24T16:11:55.237Z,99039.91
2022-11-24T16:14:00.226Z,99038.71
2022-11-24T16:16:06.476Z,99036.84
2022-11-24T16:18:11.544Z,99036.16
2022-11-24T16:20:16.964Z,99037.14
2022-11-24T16:22:22.006Z,99041.70
2022-11-24T16:24:26.996Z,99041.14
2022-11-24T16:26:32.243Z,99046.13
2022-11-24T16:28:38.237Z,99041.98
2022-11-24T16:30:47.512Z,99046.40
2022-11-24T16:32:52.979Z,99048.79
2022-11-24T16:34:59.069Z,99048.42
2022-11-24T16:37:03.852Z,99055.79
2022-11-24T16:39:08.931Z,99057.74
2022-11-24T16:41:14.120Z,99058.08
2022-11-24T16:43:19.585Z,99063.22
2022-11-24T16:45:25.094Z,99065.46
2022-11-24T16:47:30.723Z,99068.44
2022-11-24T16:49:35.752Z,99066.84
2022-11-24T16:51:40.400Z,99071.67
2022-11-24T16:53:45.207Z,99081.66
2022-11-24T16:55:58.934Z,99076.44
2022-11-24T16:58:06.174Z,99079.69
2022-11-24T17:00:13.408Z,99086.52
2022-11-24T17:02:18.613Z,99086.73
2022-11-24T17:04:24.665Z,99085.42
2022-11-24T17:06:29.331Z,99085.91
2022-11-24T17:08:38.520Z,99089.14
2022-11-24T17:10:43.316Z,99099.55
2022-11-24T17:12:48.264Z,99100.73
2022-11-24T17:15:16.781Z,99110.02
2022-11-24T17:17:18.549Z,99105.74
2022-11-24T17:19:23.885Z,99112.26
2022-11-24T17:21:29.650Z,99113.38
2022-11-24T17:23:34.403Z,99113.70
2022-11-24T17:25:40.346Z,99111.81
2022-11-24T17:27:46.191Z,99113.12
2022-11-24T17:29:52.015Z,99111.85
2022-11-24T17:31:58.722Z,99118.45
2022-11-24T17:34:07.366Z,99122.30
2022-11-24T17:36:13.731Z,99122.12
2022-11-24T17:38:20.626Z,99122.70
2022-11-24T17:40:28.868Z,99131.03
2022-11-24T17:42:35.519Z,99128.59
2022-11-24T17:44:42.956Z,99130.00
2022-11-24T17:46:48.432Z,99129.42
2022-11-24T17:48:54.221Z,99129.92
2022-11-24T17:51:04.211Z,99133.39
2022-11-24T17:53:09.702Z,99128.59
2022-11-24T17:55:15.892Z,99131.88
2022-11-24T17:57:22.040Z,99132.48
2022-11-24T17:59:28.408Z,99126.34
2022-11-24T18:01:36.713Z,99137.33
2022-11-24T18:03:42.887Z,99139.20
2022-11-24T18:05:49.336Z,99145.22
2022-11-24T18:07:55.568Z,99141.02
2022-11-24T18:10:02.392Z,99144.30
2022-11-24T18:12:09.805Z,99145.55
2022-11-24T18:14:16.166Z,99144.36
2022-11-24T18:16:22.138Z,99147.77
2022-11-24T18:18:30.354Z,99150.52
2022-11-24T18:20:36.531Z,99156.18
2022-11-24T18:23:04.442Z,99158.70
2022-11-24T18:25:10.747Z,99160.30
2022-11-24T18:27:18.176Z,99159.41
2022-11-24T18:29:24.415Z,99156.73
2022-11-24T18:31:33.824Z,99158.23
2022-11-24T18:33:41.002Z,99159.48
2022-11-24T18:35:58.119Z,99160.84
2022-11-24T18:38:07.422Z,99162.02
2022-11-24T18:40:15.817Z,99161.71
2022-11-24T18:42:22.018Z,99166.60
2022-11-24T18:44:28.449Z,99170.90
2022-11-24T18:46:34.320Z,99168.28
2022-11-24T18:48:40.259Z,99164.37
2022-11-24T18:50:49.875Z,99166.27
2022-11-24T18:52:55.959Z,99166.79
2022-11-24T18:55:16.898Z,99169.10
2022-11-24T18:57:25.713Z,99175.75
2022-11-24T18:59:32.425Z,99171.86
2022-11-24T19:01:42.054Z,99171.88
2022-11-24T19:03:49.824Z,99167.61
2022-11-24T19:05:55.790Z,99173.01
2022-11-24T19:08:01.682Z,99167.69
2022-11-24T19:10:11.386Z,99171.44
2022-11-24T19:12:19.322Z,99173.33
2022-11-24T19:14:24.860Z,99168.16
2022-11-24T19:16:31.138Z,99166.64
2022-11-24T19:18:37.596Z,99166.89
2022-11-24T19:20:43.215Z,99169.31
2022-11-24T19:22:50.529Z,99168.97
2022-11-24T19:24:57.148Z,99173.09
2022-11-24T19:27:03.146Z,99177.79
2022-11-24T19:29:09.806Z,99178.94
2022-11-24T19:31:20.456Z,99182.21
2022-11-24T19:33:27.287Z,99180.25
2022-11-24T19:35:36.180Z,99181.69
2022-11-24T19:37:43.551Z,99182.67
2022-11-24T19:39:49.521Z,99190.03
2022-11-24T19:41:58.081Z,99194.10
2022-11-24T19:44:05.195Z,99203.86
2022-11-24T19:46:14.097Z,99205.75
2022-11-24T19:48:22.568Z,99205.95
2022-11-24T19:50:29.169Z,99206.23
2022-11-24T19:52:35.968Z,99205.81
2022-11-24T19:54:47.726Z,99199.95
2022-11-24T19:56:54.955Z,99200.19
2022-11-24T19:59:04.455Z,99201.02
2022-11-24T20:01:25.646Z,99204.19
2022-11-24T20:03:31.890Z,99211.60
2022-11-24T20:05:41.062Z,99209.88
2022-11-24T20:07:47.533Z,99217.15
2022-11-24T20:09:54.186Z,99220.91
2022-11-24T20:12:02.776Z,99222.08
2022-11-24T20:14:11.493Z,99224.04
2022-11-24T20:16:21.639Z,99227.20
2022-11-24T20:18:27.730Z,99231.30
2022-11-24T20:20:36.950Z,99230.52
2022-11-24T20:22:44.426Z,99229.23
2022-11-24T20:24:50.280Z,99231.36
2022-11-24T20:27:00.181Z,99228.89
2022-11-24T20:29:10.788Z,99232.02
2022-11-24T20:31:19.888Z,99234.20
2022-11-24T20:33:26.340Z,99238.77
2022-11-24T20:35:32.599Z,99240.76
2022-11-24T20:40:02.757Z,99245.82
2022-11-24T20:42:08.433Z,99243.75
2022-11-24T20:44:16.952Z,99246.97
2022-11-24T20:46:24.591Z,99243.39
2022-11-24T20:48:31.176Z,99247.25
2022-11-24T20:50:39.048Z,99253.85
2022-11-24T20:52:45.329Z,99258.77
2022-11-24T20:54:51.455Z,99260.05
2022-11-24T20:56:57.246Z,99257.63
2022-11-24T20:59:03.439Z,99261.92
2022-11-24T21:01:11.033Z,99264.48
2022-11-24T21:03:16.514Z,99266.90
2022-11-24T21:05:21.958Z,99271.35
2022-11-24T21:07:27.072Z,99271.30
2022-11-24T21:09:32.502Z,99272.20
2022-11-24T21:11:39.123Z,99275.63
2022-11-24T21:13:45.977Z,99280.66
2022-11-24T21:15:52.065Z,99284.09
2022-11-24T21:17:59.837Z,99282.20
2022-11-24T21:20:05.872Z,99283.89
2022-11-24T21:22:11.516Z,99280.77
2022-11-24T21:24:18.891Z,99283.25
2022-11-24T21:26:23.872Z,99281.33
2022-11-24T21:28:28.981Z,99283.38
2022-11-24T21:30:35.224Z,99283.65
2022-11-24T21:32:39.961Z,99287.61
2022-11-24T21:34:44.898Z,99284.02
2022-11-24T21:36:49.569Z,99289.91
2022-11-24T21:38:56.380Z,99294.96
2022-11-24T21:41:05.110Z,99293.17
2022-11-24T21:43:09.671Z,99296.89
2022-11-24T21:45:14.293Z,99293.48
2022-11-24T21:47:18.933Z,99294.14
2022-11-24T21:49:23.566Z,99299.83
2022-11-24T21:51:28.490Z,99296.53
2022-11-24T21:53:34.866Z,99297.79
2022-11-24T21:55:39.500Z,99298.91
2022-11-24T21:57:44.198Z,99300.50
2022-11-24T21:59:48.853Z,99299.42
2022-11-24T22:01:53.573Z,99303.48
2022-11-24T22:03:58.226Z,99309.48
2022-11-24T22:06:03.295Z,99308.52
2022-11-24T22:08:08.249Z,99310.34
2022-11-24T22:10:13.208Z,99312.88
2022-11-24T22:12:18.141Z,99315.72
2022-11-24T22:14:22.724Z,99316.05
2022-11-24T22:16:27.467Z,99318.60
2022-11-24T22:18:37.051Z,99319.09
2022-11-24T22:20:41.630Z,99319.35
2022-11-24T22:22:46.261Z,99320.30
2022-11-24T22:24:52.328Z,99315.45
2022-11-24T22:26:56.966Z,99323.64
2022-11-24T22:29:01.677Z,99325.63
2022-11-24T22:31:07.861Z,99325.55
2022-11-24T22:33:13.099Z,99330.70
2022-11-24T22:35:17.747Z,99331.89
2022-11-24T22:37:22.430Z,99330.30
2022-11-24T22:39:27.086Z,99329.98
2022-11-24T22:41:33.200Z,99330.63
2022-11-24T22:43:39.430Z,99331.90
2022-11-24T22:45:44.190Z,99329.69
2022-11-24T22:47:53.059Z,99334.42
2022-11-24T22:49:57.737Z,99334.95
2022-11-24T22:52:02.390Z,99335.31
2022-11-24T22:54:07.480Z,99335.19
2022-11-24T22:56:12.754Z,99340.28
2022-11-24T22:58:17.392Z,99338.80
2022-11-24T23:00:22.246Z,99342.84
2022-11-24T23:02:27.946Z,99340.89
2022-11-24T23:04:32.968Z,99343.25
2022-11-24T23:06:37.949Z,99342.90
2022-11-24T23:08:43.280Z,99343.21
2022-11-24T23:10:47.946Z,99341.08
2022-11-24T23:12:52.687Z,99340.94
2022-11-24T23:14:57.368Z,99340.98
2022-11-24T23:17:02.123Z,99341.79
2022-11-24T23:19:06.971Z,99341.39
2022-11-24T23:21:13.686Z,99342.84
2022-11-24T23:23:18.590Z,99338.70
2022-11-24T23:25:23.342Z,99346.56
2022-11-24T23:27:28.085Z,99339.46
2022-11-24T23:29:35.537Z,99338.44
2022-11-24T23:31:40.465Z,99344.30
2022-11-24T23:33:45.695Z,99343.77
2022-11-24T23:35:50.338Z,99347.29
2022-11-24T23:38:10.053Z,99347.47
2022-11-24T23:40:15.316Z,99344.76
2022-11-24T23:42:19.969Z,99347.06
2022-11-24T23:44:24.663Z,99347.30
2022-11-24T23:46:29.355Z,99348.29
2022-11-24T23:48:35.176Z,99353.01
2022-11-24T23:50:39.879Z,99350.02
2022-11-24T23:52:44.605Z,99354.14
2022-11-24T23:57:11.570Z,99352.83
2022-11-24T23:59:16.350Z,99356.27
